Fort Worth Nas Jrb/Carswell field
KNFW : now visible

Airfield :











YOU CAN JOIN US ON...

 
LOGIN :

Register | Disclaimer

   EN    FR    IT 

 









Legend :    VFR   Marginal VFR   IFR   Intensive IFR   Very Intensive IFR
Visi :
Ceiling :
>= 8 km
>= 3000ft
5 to 8 km
1000 to 3000 ft
1500m to 5 km
500 to 1000 ft
800 to 1500m
200 to 500 ft
< 800m
< 200 ft
Symbols :   Thunderstorms  Fog  Heavy snow  Heavy precipitations  Wind > 20 kt






- Airport Elevation : 650 ft


KNFW - Fort Worth Nas Jrb/Carswell field

CURRENT METAR :
  • 141752Z 15013KT 10SM FEW180 SCT250 36/21 A2987 RMK AO2 SLP098 T03560206 10361 20267 58005 VISNO N $

EXPIRED METARs :
  • 141652Z 19012G33KT 10SM FEW090 SCT150 BKN250 34/20 A2988 RMK AO2 PK WND 20033/1648 SLP101 T03390200 VISNO N $
  • 141552Z 19014G25KT 10SM FEW080 SCT150 BKN250 33/21 A2987 RMK AO2 SLP100 T03330206 VISNO N $

TAF COR TAF KNFW
Valid from the 14 at 15:00 until the 15 at 15:00 UTC


1415/1515 19015KT 9999 FEW080 SCT150 BKN250 QNH2974INS
FM150600 18018G25KT 9999 FEW060 SCT150 BKN250 QNH2980INS
FM151200 19012KT 9999 SCT020 BKN150 BKN250 QNH2985INS T40/1421Z T26/1511Z COR 1510 FN20046
KZFW FIR / North America



MET'MAP, your aeronautical weather chart ! - Copyright ORBIFLY December 2007 - Disclaimer

ORBIFLY MET'MAP TEAM :

Programming & Development : Alexandra Zaïnal
Concept & original design : Baudouin d'Aumeries
Assistance for programming : Marc-Olivier Méhu
Technical & hardware support : Manuel Goepfert

Contact : metmap@orbifly.com




SOURCES & CREDITS :

   NOAA       Earth
Advisory